Time;durP1;ratioP1;P1;durP2;ratioP2;P2;SDS_P1;SDS_P2;PMS_P1;PMS_P2;Temp;Humidity;BMP_temperature;BMP_pressure;BME280_temperature;BME280_humidity;BME280_pressure;Samples;Min_cycle;Max_cycle;Signal;HPM_P1;HPM_P2
2022/08/16 00:02:01;;;;;;;15.48;6.05;;;21.60;99.90;;;;;;5066619;28;20497;-81
2022/08/16 00:04:27;;;;;;;8.88;5.38;;;21.60;99.90;;;;;;5067529;28;20024;-82
2022/08/16 00:06:53;;;;;;;9.95;4.93;;;21.50;99.90;;;;;;5067423;28;20033;-82
2022/08/16 00:09:19;;;;;;;8.55;5.43;;;21.40;99.90;;;;;;5066879;28;20032;-82
2022/08/16 00:11:46;;;;;;;8.70;4.72;;;21.40;99.90;;;;;;5067418;28;20363;-82
2022/08/16 00:14:15;;;;;;;6.68;4.57;;;21.40;99.90;;;;;;5066440;28;20500;-82
2022/08/16 00:16:42;;;;;;;12.70;4.65;;;21.40;99.90;;;;;;5065905;28;20017;-83
2022/08/16 00:19:07;;;;;;;7.18;4.07;;;21.30;99.90;;;;;;5065733;28;20029;-83
2022/08/16 00:21:34;;;;;;;11.93;4.70;;;21.30;99.90;;;;;;5068252;28;20024;-83
2022/08/16 00:24:00;;;;;;;6.97;4.30;;;21.30;99.90;;;;;;5071724;28;20064;-81
2022/08/16 00:26:26;;;;;;;7.50;4.88;;;21.40;99.90;;;;;;5070732;28;20039;-83
2022/08/16 00:28:51;;;;;;;10.05;4.88;;;21.40;99.90;;;;;;5069982;28;20028;-82
2022/08/16 00:31:17;;;;;;;8.07;4.60;;;21.40;99.90;;;;;;5070746;28;20106;-83
2022/08/16 00:33:43;;;;;;;7.10;4.47;;;21.40;99.90;;;;;;5070215;28;20078;-82
2022/08/16 00:36:09;;;;;;;8.35;4.55;;;21.30;99.90;;;;;;5070846;28;20024;-82
2022/08/16 00:38:34;;;;;;;5.05;3.67;;;21.40;99.90;;;;;;5071651;28;20040;-83
2022/08/16 00:41:00;;;;;;;8.85;3.97;;;21.40;99.90;;;;;;5071681;28;20035;-82
2022/08/16 00:43:33;;;;;;;4.10;3.30;;;21.40;99.90;;;;;;5070168;28;20033;-80
2022/08/16 00:46:10;;;;;;;5.97;2.72;;;21.40;99.90;;;;;;5070101;28;20697;-82
2022/08/16 00:48:38;;;;;;;4.15;3.28;;;21.40;99.90;;;;;;5070362;28;20110;-83
2022/08/16 00:51:05;;;;;;;5.10;3.03;;;21.40;99.90;;;;;;5070078;28;20047;-82
2022/08/16 00:53:31;;;;;;;4.57;3.25;;;21.40;99.90;;;;;;5070716;28;20086;-82
2022/08/16 00:56:00;;;;;;;3.72;2.85;;;21.40;99.90;;;;;;5070718;28;20377;-82
2022/08/16 00:58:29;;;;;;;5.43;2.53;;;21.40;99.90;;;;;;5070664;28;20052;-83
2022/08/16 01:00:55;;;;;;;3.42;2.80;;;21.30;99.90;;;;;;5083240;28;20449;-83
2022/08/16 01:03:25;;;;;;;4.28;3.08;;;21.30;99.90;;;;;;5090560;28;20052;-82
2022/08/16 01:05:51;;;;;;;4.40;3.40;;;21.30;99.90;;;;;;5090352;28;20505;-83
2022/08/16 01:08:21;;;;;;;5.43;3.58;;;21.20;99.90;;;;;;5082218;28;20107;-82
2022/08/16 01:10:47;;;;;;;5.57;3.65;;;21.20;99.90;;;;;;5068657;28;20027;-83
2022/08/16 01:13:21;;;;;;;5.97;3.97;;;21.20;99.90;;;;;;5068285;28;20033;-83
2022/08/16 01:15:59;;;;;;;5.43;3.40;;;21.20;99.90;;;;;;5069618;28;20032;-83
2022/08/16 01:18:31;;;;;;;3.85;3.45;;;21.20;99.90;;;;;;5069623;28;20305;-83
2022/08/16 01:21:17;;;;;;;5.05;3.80;;;21.20;99.90;;;;;;5068826;28;20033;-81
2022/08/16 01:24:07;;;;;;;3.87;3.10;;;21.20;99.90;;;;;;5069045;28;20060;-82
2022/08/16 01:26:35;;;;;;;9.88;4.28;;;21.20;99.90;;;;;;5069653;28;20170;-82
2022/08/16 01:29:06;;;;;;;7.53;4.03;;;21.10;99.90;;;;;;5068959;28;20048;-83
2022/08/16 01:31:32;;;;;;;6.43;3.80;;;21.10;99.90;;;;;;5069171;28;20411;-82
2022/08/16 01:33:58;;;;;;;4.32;3.33;;;21.10;99.90;;;;;;5068361;28;20025;-83
2022/08/16 01:36:23;;;;;;;9.35;4.13;;;21.10;99.90;;;;;;5067797;28;20086;-82
2022/08/16 01:38:50;;;;;;;4.70;3.90;;;21.10;99.90;;;;;;5070401;28;20455;-83
2022/08/16 01:41:21;;;;;;;7.05;4.25;;;21.10;99.90;;;;;;5069927;28;20078;-82
2022/08/16 01:43:47;;;;;;;5.05;4.25;;;21.10;99.90;;;;;;5068632;28;20115;-83
2022/08/16 01:46:42;;;;;;;10.30;4.72;;;21.10;99.90;;;;;;5068595;28;20036;-82
2022/08/16 01:49:21;;;;;;;6.07;4.60;;;21.10;99.90;;;;;;5068832;28;20036;-82
2022/08/16 01:51:56;;;;;;;6.38;4.68;;;21.10;99.90;;;;;;5068376;28;20029;-82
2022/08/16 01:54:22;;;;;;;4.85;4.35;;;21.00;99.90;;;;;;5067977;28;20114;-83
2022/08/16 01:56:47;;;;;;;5.35;4.10;;;21.00;99.90;;;;;;5068303;28;20082;-82
2022/08/16 01:59:14;;;;;;;5.95;4.00;;;21.00;99.90;;;;;;5069737;28;20032;-81
2022/08/16 02:01:40;;;;;;;6.55;4.30;;;21.00;99.90;;;;;;5067906;28;20108;-81
2022/08/16 02:04:05;;;;;;;9.52;4.47;;;21.00;99.90;;;;;;5068054;28;20493;-82
2022/08/16 02:06:31;;;;;;;8.23;4.25;;;20.90;99.90;;;;;;5069455;28;20437;-82
2022/08/16 02:08:57;;;;;;;8.93;4.47;;;20.90;99.90;;;;;;5069096;28;20036;-83
2022/08/16 02:11:24;;;;;;;7.15;4.70;;;21.00;99.90;;;;;;5069829;28;20489;-82
2022/08/16 02:13:50;;;;;;;7.88;4.97;;;20.90;99.90;;;;;;5069684;28;20856;-82
2022/08/16 02:16:15;;;;;;;6.82;4.47;;;20.80;99.90;;;;;;5068431;28;20074;-82
2022/08/16 02:18:41;;;;;;;7.40;5.35;;;20.80;99.90;;;;;;5067992;28;20044;-81
2022/08/16 02:21:09;;;;;;;9.57;4.75;;;20.70;99.90;;;;;;5067479;28;20397;-82
2022/08/16 02:23:36;;;;;;;8.45;3.78;;;20.80;99.90;;;;;;5067394;28;20060;-81
2022/08/16 02:26:03;;;;;;;10.25;4.47;;;20.70;99.90;;;;;;5069017;28;20167;-83
2022/08/16 02:28:29;;;;;;;7.35;4.45;;;20.70;99.90;;;;;;5068380;28;20056;-83
2022/08/16 02:30:58;;;;;;;5.97;4.53;;;20.70;99.90;;;;;;5067052;28;20494;-83
2022/08/16 02:33:25;;;;;;;6.03;3.97;;;20.70;99.90;;;;;;5069304;28;20028;-84
2022/08/16 02:35:51;;;;;;;5.13;4.30;;;20.70;99.90;;;;;;5066983;28;20029;-84
2022/08/16 02:38:16;;;;;;;5.88;4.32;;;20.70;99.90;;;;;;5067604;28;20071;-83
2022/08/16 02:40:42;;;;;;;5.20;4.70;;;20.70;99.90;;;;;;5067374;28;20494;-83
2022/08/16 02:43:08;;;;;;;6.53;4.65;;;20.60;99.90;;;;;;5067600;28;20031;-81
2022/08/16 02:45:33;;;;;;;6.60;4.80;;;20.60;99.90;;;;;;5066493;28;20020;-82
2022/08/16 02:47:59;;;;;;;6.85;4.93;;;20.60;99.90;;;;;;5068099;28;20055;-82
2022/08/16 02:50:25;;;;;;;5.78;5.18;;;20.50;99.90;;;;;;5068699;28;20060;-82
2022/08/16 02:52:51;;;;;;;7.07;4.90;;;20.50;99.90;;;;;;5068076;28;20103;-82
2022/08/16 02:55:18;;;;;;;8.75;4.78;;;20.50;99.90;;;;;;5067362;28;20482;-82
2022/08/16 02:57:44;;;;;;;8.52;5.00;;;20.50;99.90;;;;;;5067412;28;20440;-81
2022/08/16 03:00:12;;;;;;;8.20;5.35;;;20.40;99.90;;;;;;5066889;28;20021;-80
2022/08/16 03:02:40;;;;;;;7.97;5.10;;;20.40;99.90;;;;;;5067063;28;20024;-81
2022/08/16 03:05:08;;;;;;;8.05;4.78;;;20.40;99.90;;;;;;5066828;28;20066;-81
2022/08/16 03:07:34;;;;;;;6.00;5.18;;;20.40;99.90;;;;;;5066739;28;20032;-81
2022/08/16 03:10:00;;;;;;;5.57;4.72;;;20.40;99.90;;;;;;5067132;28;20057;-81
2022/08/16 03:12:26;;;;;;;6.25;5.20;;;20.40;99.90;;;;;;5066975;28;20028;-82
2022/08/16 03:14:52;;;;;;;5.45;4.88;;;20.30;99.90;;;;;;5066825;28;20031;-82
2022/08/16 03:17:17;;;;;;;7.13;5.82;;;20.30;99.90;;;;;;5068509;28;20768;-82
2022/08/16 03:19:43;;;;;;;7.07;4.78;;;20.30;99.90;;;;;;5067550;28;20020;-82
2022/08/16 03:22:09;;;;;;;6.00;4.90;;;20.20;99.90;;;;;;5068043;28;20033;-81
2022/08/16 03:24:35;;;;;;;7.22;6.00;;;20.20;99.90;;;;;;5067481;28;20187;-82
2022/08/16 03:27:02;;;;;;;7.25;5.53;;;20.20;99.90;;;;;;5066452;28;20107;-81
2022/08/16 03:29:30;;;;;;;6.88;5.28;;;20.10;99.90;;;;;;5087225;28;20032;-81
2022/08/16 03:32:00;;;;;;;10.82;5.47;;;20.10;99.90;;;;;;5086752;28;20056;-84
2022/08/16 03:34:26;;;;;;;9.70;5.25;;;20.10;99.90;;;;;;5086307;28;20028;-84
2022/08/16 03:36:52;;;;;;;7.55;5.40;;;20.00;99.90;;;;;;5071752;28;20028;-84
2022/08/16 03:39:18;;;;;;;6.93;5.53;;;20.00;99.90;;;;;;5066374;28;20082;-84
2022/08/16 03:41:44;;;;;;;6.32;4.30;;;20.00;99.90;;;;;;5066564;28;20028;-83
2022/08/16 03:44:10;;;;;;;7.00;5.00;;;19.90;99.90;;;;;;5066775;28;20157;-84
2022/08/16 03:46:36;;;;;;;10.63;5.05;;;19.90;99.90;;;;;;5066355;28;20039;-83
2022/08/16 03:49:02;;;;;;;6.32;4.68;;;19.90;99.90;;;;;;5065876;28;20071;-83
2022/08/16 03:51:28;;;;;;;8.10;4.82;;;19.90;99.90;;;;;;5065701;28;20078;-84
2022/08/16 03:53:53;;;;;;;10.85;5.57;;;20.00;99.90;;;;;;5066373;28;20032;-83
2022/08/16 03:56:20;;;;;;;8.00;5.20;;;20.00;99.90;;;;;;5065116;28;20119;-83
2022/08/16 03:58:46;;;;;;;4.97;4.18;;;20.00;99.90;;;;;;5065650;28;20024;-83
2022/08/16 04:01:12;;;;;;;6.15;4.80;;;20.00;99.90;;;;;;5067359;28;20111;-84
2022/08/16 04:03:37;;;;;;;8.65;5.22;;;20.00;99.90;;;;;;5065715;28;20136;-85
2022/08/16 04:06:03;;;;;;;9.07;4.82;;;20.10;99.90;;;;;;5066128;28;20058;-83
2022/08/16 04:08:30;;;;;;;9.38;4.18;;;20.20;99.90;;;;;;5065488;28;20086;-84
2022/08/16 04:10:55;;;;;;;7.63;4.57;;;20.20;99.90;;;;;;5065921;28;20119;-83
2022/08/16 04:13:22;;;;;;;6.10;4.72;;;20.30;99.90;;;;;;5067006;28;20076;-83
2022/08/16 04:15:47;;;;;;;11.75;4.70;;;20.30;99.90;;;;;;5066177;28;20036;-84
2022/08/16 04:18:13;;;;;;;6.75;4.53;;;20.40;99.90;;;;;;5065341;28;20021;-82
2022/08/16 04:20:39;;;;;;;9.65;4.78;;;20.50;99.90;;;;;;5066391;28;20036;-82
2022/08/16 04:23:06;;;;;;;7.45;4.70;;;20.60;99.90;;;;;;5064885;28;20111;-82
2022/08/16 04:25:34;;;;;;;9.52;4.47;;;20.60;99.90;;;;;;5064760;28;20032;-82
2022/08/16 04:28:00;;;;;;;6.50;4.47;;;20.70;99.90;;;;;;5066189;28;20074;-81
2022/08/16 04:30:27;;;;;;;10.05;4.72;;;20.80;99.90;;;;;;5065540;28;20028;-82
2022/08/16 04:32:53;;;;;;;8.50;4.80;;;20.90;99.90;;;;;;5065153;28;20579;-81
2022/08/16 04:35:21;;;;;;;10.07;4.65;;;20.90;99.90;;;;;;5065738;28;20324;-81
2022/08/16 04:37:48;;;;;;;6.00;4.30;;;21.00;99.90;;;;;;5065613;28;20024;-82
2022/08/16 04:40:14;;;;;;;7.93;4.90;;;21.00;99.90;;;;;;5066460;28;20082;-82
2022/08/16 04:42:41;;;;;;;8.07;4.20;;;21.10;99.90;;;;;;5065073;28;20435;-82
2022/08/16 04:45:09;;;;;;;6.72;4.07;;;21.20;99.90;;;;;;5067227;28;20055;-82
2022/08/16 04:47:35;;;;;;;5.80;3.65;;;21.30;99.90;;;;;;5064944;28;20033;-81
2022/08/16 04:50:11;;;;;;;4.75;4.20;;;21.40;99.90;;;;;;5065899;28;20473;-82
2022/08/16 04:52:37;;;;;;;13.47;4.87;;;21.60;99.90;;;;;;5065863;28;20029;-81
2022/08/16 04:55:07;;;;;;;4.72;4.22;;;21.70;99.90;;;;;;5065565;28;20366;-82
2022/08/16 04:57:33;;;;;;;10.50;5.28;;;21.90;99.90;;;;;;5066963;28;20055;-81
2022/08/16 04:59:59;;;;;;;6.82;4.18;;;22.00;99.90;;;;;;5065229;28;20028;-81
2022/08/16 05:02:25;;;;;;;7.00;4.15;;;22.00;99.90;;;;;;5067476;28;20029;-82
2022/08/16 05:04:50;;;;;;;4.95;3.75;;;22.20;99.90;;;;;;5065300;28;20114;-83
2022/08/16 05:07:16;;;;;;;5.95;4.28;;;22.50;99.90;;;;;;5066338;28;20028;-82
2022/08/16 05:09:41;;;;;;;9.48;3.83;;;22.70;99.90;;;;;;5070978;28;20024;-82
2022/08/16 05:12:07;;;;;;;7.68;4.10;;;22.90;99.90;;;;;;5068400;28;20087;-81
2022/08/16 05:14:33;;;;;;;5.72;4.43;;;23.00;99.90;;;;;;5086826;28;20783;-83
2022/08/16 05:16:58;;;;;;;5.50;4.25;;;23.10;99.90;;;;;;5089521;28;20419;-83
2022/08/16 05:19:24;;;;;;;7.85;4.40;;;23.10;99.90;;;;;;5087001;28;20066;-84
2022/08/16 05:21:50;;;;;;;5.05;4.03;;;23.20;99.90;;;;;;5069188;28;20475;-82
2022/08/16 05:24:15;;;;;;;4.93;4.00;;;23.20;99.90;;;;;;5067951;28;20049;-84
2022/08/16 05:26:41;;;;;;;8.15;4.18;;;23.20;99.90;;;;;;5069200;28;20032;-83
2022/08/16 05:29:07;;;;;;;7.03;4.15;;;23.20;99.90;;;;;;5068101;28;20033;-83
2022/08/16 05:31:33;;;;;;;8.98;4.40;;;23.30;99.90;;;;;;5068962;28;20074;-84
2022/08/16 05:34:00;;;;;;;6.03;4.80;;;23.30;99.90;;;;;;5067951;28;20489;-84
2022/08/16 05:36:27;;;;;;;7.03;4.40;;;23.40;99.90;;;;;;5068096;28;20029;-84
2022/08/16 05:38:53;;;;;;;7.82;3.85;;;23.40;99.90;;;;;;5068192;28;20496;-83
2022/08/16 05:41:18;;;;;;;6.57;4.10;;;23.40;99.90;;;;;;5068517;28;20107;-83
2022/08/16 05:43:45;;;;;;;5.00;3.90;;;23.40;99.90;;;;;;5067781;28;20412;-84
2022/08/16 05:46:12;;;;;;;7.07;4.25;;;23.50;99.90;;;;;;5068036;28;20036;-83
2022/08/16 05:48:37;;;;;;;6.40;4.22;;;23.50;99.90;;;;;;5067771;28;20035;-83
2022/08/16 05:51:03;;;;;;;11.25;4.97;;;23.60;99.90;;;;;;5068010;28;20028;-83
2022/08/16 05:53:29;;;;;;;6.72;4.30;;;23.80;99.90;;;;;;5068887;28;20117;-82
2022/08/16 05:55:54;;;;;;;6.80;4.00;;;24.20;99.90;;;;;;5067602;28;20035;-84
2022/08/16 05:58:20;;;;;;;8.77;3.92;;;25.10;99.90;;;;;;5067641;28;20501;-84
2022/08/16 06:00:46;;;;;;;5.63;3.67;;;26.10;99.90;;;;;;5067398;28;20147;-81
2022/08/16 06:03:11;;;;;;;7.10;3.35;;;27.00;99.90;;;;;;5067631;28;20025;-82
2022/08/16 06:05:37;;;;;;;6.30;3.63;;;27.60;99.90;;;;;;5067408;28;20070;-82
2022/08/16 06:08:03;;;;;;;4.95;3.20;;;28.50;98.50;;;;;;5067277;28;20503;-82
2022/08/16 06:10:30;;;;;;;8.13;3.08;;;29.30;96.10;;;;;;5067331;28;20040;-82
2022/08/16 06:12:55;;;;;;;10.25;3.67;;;30.10;93.70;;;;;;5068157;28;20020;-82
2022/08/16 06:15:21;;;;;;;9.65;3.65;;;30.90;91.40;;;;;;5066933;28;20029;-82
2022/08/16 06:17:47;;;;;;;7.00;3.03;;;31.50;86.70;;;;;;5066833;28;20028;-81
2022/08/16 06:20:18;;;;;;;5.55;2.92;;;32.10;81.40;;;;;;5065363;28;20033;-82
2022/08/16 06:22:44;;;;;;;4.05;2.95;;;32.80;76.70;;;;;;5067001;28;20424;-81
2022/08/16 06:25:11;;;;;;;3.45;3.08;;;32.80;75.40;;;;;;5066817;28;20056;-81
2022/08/16 06:27:38;;;;;;;7.78;3.35;;;33.00;72.80;;;;;;5066728;28;20040;-82
2022/08/16 06:30:06;;;;;;;5.47;3.60;;;33.60;71.70;;;;;;5067263;28;20024;-83
2022/08/16 06:32:31;;;;;;;8.90;3.35;;;34.20;68.50;;;;;;5067205;28;20032;-82
2022/08/16 06:34:58;;;;;;;4.03;3.17;;;34.50;65.90;;;;;;5067345;28;20078;-82
2022/08/16 06:37:24;;;;;;;16.20;3.38;;;35.00;62.90;;;;;;5068100;28;20028;-82
2022/08/16 06:39:49;;;;;;;7.43;3.47;;;35.50;61.20;;;;;;5066424;28;20551;-82
2022/08/16 06:42:16;;;;;;;3.70;2.65;;;35.70;57.90;;;;;;5066964;28;20549;-81
2022/08/16 06:44:42;;;;;;;6.03;3.22;;;34.90;54.20;;;;;;5068081;28;20031;-81
2022/08/16 06:47:07;;;;;;;4.28;2.47;;;34.30;56.20;;;;;;5066058;28;20048;-82
2022/08/16 06:49:33;;;;;;;4.38;2.80;;;33.50;55.40;;;;;;5065523;28;20032;-81
2022/08/16 06:51:59;;;;;;;13.30;3.30;;;33.00;57.60;;;;;;5066519;28;20036;-82
2022/08/16 06:54:24;;;;;;;7.60;3.20;;;32.70;59.50;;;;;;5066740;28;20020;-82
2022/08/16 06:56:50;;;;;;;7.05;2.92;;;32.80;59.30;;;;;;5067448;28;20186;-84
2022/08/16 06:59:16;;;;;;;7.00;3.30;;;33.20;59.80;;;;;;5068541;28;20028;-83
2022/08/16 07:01:41;;;;;;;4.05;2.90;;;33.60;58.50;;;;;;5066782;28;20028;-83
2022/08/16 07:04:07;;;;;;;4.93;2.90;;;33.80;57.90;;;;;;5066409;28;20024;-82
2022/08/16 07:06:33;;;;;;;5.93;2.67;;;34.30;56.40;;;;;;5066738;28;20432;-83
2022/08/16 07:08:58;;;;;;;5.28;3.05;;;34.70;53.80;;;;;;5066251;28;20030;-83
2022/08/16 07:11:25;;;;;;;5.22;3.08;;;34.80;52.60;;;;;;5065382;28;20536;-83
2022/08/16 07:13:51;;;;;;;6.32;3.17;;;35.20;52.20;;;;;;5066029;28;20119;-83
2022/08/16 07:16:17;;;;;;;4.07;2.70;;;35.30;50.90;;;;;;5065941;28;20120;-82
2022/08/16 07:18:43;;;;;;;6.03;2.97;;;35.20;51.10;;;;;;5065599;28;20051;-82
2022/08/16 07:21:14;;;;;;;6.30;3.33;;;35.00;51.40;;;;;;5065247;28;20052;-83
2022/08/16 07:23:40;;;;;;;7.75;3.33;;;35.70;52.10;;;;;;5065094;28;20044;-82
2022/08/16 07:26:09;;;;;;;6.85;3.70;;;36.00;51.70;;;;;;5066520;28;20044;-82
2022/08/16 07:28:36;;;;;;;7.57;3.80;;;36.00;52.20;;;;;;5065234;28;20062;-81
2022/08/16 07:31:03;;;;;;;4.68;3.42;;;35.60;52.40;;;;;;5065065;28;20039;-83
2022/08/16 07:33:30;;;;;;;5.50;3.33;;;35.50;52.70;;;;;;5065027;28;20032;-82
2022/08/16 07:35:57;;;;;;;7.15;3.40;;;35.60;52.20;;;;;;5066493;28;20028;-82
2022/08/16 07:38:26;;;;;;;6.43;3.45;;;35.80;52.60;;;;;;5065848;28;20038;-82
2022/08/16 07:40:55;;;;;;;5.70;3.78;;;36.30;51.40;;;;;;5065021;28;20029;-82
2022/08/16 07:43:22;;;;;;;6.60;3.33;;;36.70;51.30;;;;;;5064698;28;20077;-80
2022/08/16 07:45:48;;;;;;;11.73;3.33;;;36.80;49.50;;;;;;5064898;28;20489;-83
2022/08/16 07:48:14;;;;;;;5.38;3.95;;;37.00;48.70;;;;;;5064684;28;20036;-82
2022/08/16 07:50:41;;;;;;;6.20;3.38;;;37.10;47.30;;;;;;5065418;28;20117;-83
2022/08/16 07:53:07;;;;;;;6.68;3.83;;;37.40;46.70;;;;;;5065065;28;20040;-81
2022/08/16 07:55:33;;;;;;;7.93;3.72;;;37.50;45.60;;;;;;5064561;28;20024;-82
2022/08/16 07:57:59;;;;;;;5.60;3.42;;;37.60;45.20;;;;;;5066237;28;20024;-80
2022/08/16 08:00:24;;;;;;;7.70;3.60;;;37.90;44.00;;;;;;5064524;28;20465;-82
2022/08/16 08:02:50;;;;;;;7.00;3.10;;;37.80;42.40;;;;;;5066149;28;20032;-82
2022/08/16 08:05:16;;;;;;;5.10;3.28;;;38.20;43.40;;;;;;5064598;28;20119;-81
2022/08/16 08:07:41;;;;;;;11.35;3.30;;;38.20;42.80;;;;;;5064991;28;20417;-81
2022/08/16 08:10:08;;;;;;;4.25;3.35;;;38.70;42.40;;;;;;5064884;28;20535;-80
2022/08/16 08:12:34;;;;;;;8.75;3.47;;;38.90;41.50;;;;;;5065416;28;20047;-81
2022/08/16 08:15:00;;;;;;;5.03;3.45;;;38.80;41.80;;;;;;5064248;28;20032;-82
2022/08/16 08:17:28;;;;;;;6.68;3.90;;;39.00;41.60;;;;;;5066129;28;20115;-84
2022/08/16 08:19:53;;;;;;;4.13;3.08;;;39.00;41.40;;;;;;5065530;28;20118;-80
2022/08/16 08:22:21;;;;;;;3.72;3.15;;;39.30;40.90;;;;;;5065777;28;20102;-82
2022/08/16 08:24:47;;;;;;;9.02;3.72;;;39.20;40.60;;;;;;5064428;28;20127;-81
2022/08/16 08:27:13;;;;;;;4.97;3.65;;;39.30;39.80;;;;;;5063755;28;20170;-83
2022/08/16 08:29:39;;;;;;;6.13;3.67;;;39.60;39.90;;;;;;5064413;28;20040;-83
2022/08/16 08:32:06;;;;;;;7.57;3.90;;;39.60;40.40;;;;;;5065650;28;20029;-83
2022/08/16 08:34:32;;;;;;;6.88;4.25;;;40.00;39.70;;;;;;5064685;28;20028;-82
2022/08/16 08:36:58;;;;;;;6.75;3.65;;;40.10;39.20;;;;;;5064483;28;20028;-82
2022/08/16 08:39:24;;;;;;;4.85;3.78;;;40.20;39.30;;;;;;5064587;28;20032;-81
2022/08/16 08:41:51;;;;;;;6.63;3.45;;;40.30;38.70;;;;;;5065228;28;20140;-81
2022/08/16 08:44:17;;;;;;;5.13;3.05;;;40.40;38.90;;;;;;5067422;28;20036;-81
2022/08/16 08:46:43;;;;;;;7.47;3.47;;;40.60;38.30;;;;;;5069003;28;20049;-83
2022/08/16 08:49:09;;;;;;;5.05;3.58;;;40.50;37.30;;;;;;5069636;28;20032;-80
2022/08/16 08:51:37;;;;;;;5.40;3.45;;;39.90;37.70;;;;;;5069346;28;20021;-82
2022/08/16 08:54:04;;;;;;;7.93;4.35;;;39.00;38.70;;;;;;5069367;28;20086;-81
2022/08/16 08:56:30;;;;;;;6.38;3.00;;;38.50;40.20;;;;;;5067870;28;20029;-81
2022/08/16 08:58:56;;;;;;;7.68;4.00;;;38.50;40.70;;;;;;5069256;28;20111;-81
2022/08/16 09:01:27;;;;;;;4.97;3.30;;;38.80;40.10;;;;;;5068516;28;20045;-80
2022/08/16 09:03:53;;;;;;;5.70;3.97;;;39.10;39.30;;;;;;5068479;28;20025;-84
2022/08/16 09:06:19;;;;;;;10.15;3.65;;;39.20;39.30;;;;;;5069519;28;20068;-82
2022/08/16 09:08:45;;;;;;;12.88;3.83;;;39.00;39.20;;;;;;5069053;28;20107;-81
2022/08/16 09:11:10;;;;;;;5.63;3.80;;;39.40;38.90;;;;;;5068306;28;20035;-82
2022/08/16 09:13:36;;;;;;;4.53;3.53;;;39.80;38.70;;;;;;5069346;28;20504;-83
2022/08/16 09:16:02;;;;;;;6.63;3.38;;;39.80;37.40;;;;;;5067995;28;20127;-80
2022/08/16 09:18:29;;;;;;;9.40;3.78;;;39.70;37.90;;;;;;5068724;28;20103;-83
2022/08/16 09:20:55;;;;;;;5.05;3.60;;;39.90;37.50;;;;;;5069041;28;20123;-83
2022/08/16 09:23:24;;;;;;;7.13;3.53;;;40.10;37.70;;;;;;5067758;28;20504;-82
2022/08/16 09:25:50;;;;;;;8.70;3.42;;;40.40;37.70;;;;;;5068949;28;20037;-81
2022/08/16 09:28:16;;;;;;;21.58;4.07;;;40.70;37.50;;;;;;5067424;28;20035;-81
2022/08/16 09:30:41;;;;;;;12.43;3.92;;;41.00;35.30;;;;;;5067217;28;20493;-84
2022/08/16 09:33:08;;;;;;;11.80;3.35;;;40.70;34.90;;;;;;5067585;28;20063;-84
2022/08/16 09:35:36;;;;;;;12.70;3.78;;;40.60;35.70;;;;;;5067426;28;20116;-82
2022/08/16 09:38:02;;;;;;;5.72;3.35;;;40.60;34.80;;;;;;5068422;28;20051;-82
2022/08/16 09:40:28;;;;;;;9.93;3.70;;;40.50;35.50;;;;;;5067974;28;20055;-82
2022/08/16 09:42:57;;;;;;;11.50;3.78;;;40.90;35.40;;;;;;5069034;28;20424;-82
2022/08/16 09:45:27;;;;;;;9.43;3.83;;;41.30;35.60;;;;;;5068168;28;20074;-80
2022/08/16 09:47:53;;;;;;;8.23;3.50;;;41.70;34.10;;;;;;5067978;28;20036;-80
2022/08/16 09:50:20;;;;;;;6.78;2.92;;;41.90;32.90;;;;;;5068320;28;20016;-80
2022/08/16 09:52:46;;;;;;;6.80;3.25;;;41.90;31.80;;;;;;5066890;28;20398;-82
2022/08/16 09:55:12;;;;;;;7.65;3.10;;;41.50;32.10;;;;;;5067807;28;20043;-80
2022/08/16 09:57:40;;;;;;;11.20;3.42;;;41.30;33.10;;;;;;5068218;28;20136;-80
2022/08/16 10:00:09;;;;;;;4.82;3.65;;;41.80;33.60;;;;;;5067894;28;20063;-82
2022/08/16 10:02:35;;;;;;;4.93;3.20;;;42.10;32.20;;;;;;5067562;28;20067;-79
2022/08/16 10:05:01;;;;;;;3.78;3.05;;;42.20;32.10;;;;;;5071025;28;20151;-78
2022/08/16 10:07:28;;;;;;;8.55;3.05;;;42.00;32.50;;;;;;5071947;28;20424;-79
2022/08/16 10:09:54;;;;;;;3.50;2.78;;;42.00;32.50;;;;;;5067654;28;20056;-79
2022/08/16 10:15:07;;;;;;;7.70;3.58;;;40.10;33.80;;;;;;5073903;28;20055;-78
2022/08/16 10:17:33;;;;;;;8.05;3.42;;;38.80;35.20;;;;;;5070716;28;20044;-79
2022/08/16 10:19:59;;;;;;;6.15;3.05;;;38.00;35.60;;;;;;5067844;28;20324;-79
2022/08/16 10:22:25;;;;;;;4.03;2.80;;;37.10;36.90;;;;;;5068055;28;20536;-78
2022/08/16 10:24:50;;;;;;;3.97;2.70;;;35.80;37.60;;;;;;5067189;28;20099;-78
2022/08/16 10:27:16;;;;;;;4.38;2.95;;;34.70;39.90;;;;;;5074460;28;20047;-79
2022/08/16 10:29:42;;;;;;;5.65;3.30;;;33.60;41.30;;;;;;5068494;28;20073;-81
2022/08/16 10:32:08;;;;;;;6.72;2.90;;;32.90;42.40;;;;;;5068276;28;20071;-79
2022/08/16 10:34:33;;;;;;;6.80;2.92;;;32.30;43.70;;;;;;5075328;28;20036;-79
2022/08/16 10:37:01;;;;;;;3.50;3.17;;;32.00;45.20;;;;;;5073965;28;20045;-80
2022/08/16 10:39:27;;;;;;;8.77;2.67;;;31.90;46.20;;;;;;5069318;28;20111;-82
2022/08/16 10:41:52;;;;;;;11.52;4.18;;;31.70;48.00;;;;;;5066305;28;20024;-82
2022/08/16 10:44:18;;;;;;;7.97;3.83;;;31.30;50.00;;;;;;5067436;28;20044;-81
2022/08/16 10:46:44;;;;;;;9.25;3.20;;;31.00;52.20;;;;;;5067655;28;20075;-81
2022/08/16 10:49:10;;;;;;;7.00;4.03;;;30.60;54.30;;;;;;5066835;28;20472;-81
2022/08/16 10:51:38;;;;;;;7.50;4.50;;;30.30;56.10;;;;;;5065629;28;20070;-81
2022/08/16 10:54:04;;;;;;;12.45;4.07;;;30.10;57.20;;;;;;5065535;28;20024;-81
2022/08/16 10:56:31;;;;;;;10.43;4.10;;;30.00;59.00;;;;;;5065205;28;20071;-80
2022/08/16 10:58:58;;;;;;;9.93;3.75;;;29.80;60.50;;;;;;5065504;28;20409;-81
2022/08/16 11:01:24;;;;;;;9.77;4.18;;;29.70;61.10;;;;;;5067048;28;20047;-80
2022/08/16 11:03:51;;;;;;;5.90;3.67;;;29.40;62.50;;;;;;5068574;28;20072;-80
2022/08/16 11:06:17;;;;;;;10.95;4.43;;;29.30;62.80;;;;;;5069975;28;20044;-79
2022/08/16 11:08:43;;;;;;;10.27;3.58;;;29.30;62.70;;;;;;5068474;28;20586;-80
2022/08/16 11:11:10;;;;;;;3.97;3.22;;;29.30;58.40;;;;;;5066452;28;20502;-80
2022/08/16 11:13:36;;;;;;;4.00;3.38;;;29.50;55.90;;;;;;5066564;28;20067;-79
2022/08/16 11:16:03;;;;;;;5.13;3.00;;;29.70;55.40;;;;;;5072157;28;20082;-80
2022/08/16 11:18:29;;;;;;;8.40;2.80;;;29.90;54.70;;;;;;5074294;28;20656;-80
2022/08/16 11:20:57;;;;;;;4.80;3.45;;;30.10;53.30;;;;;;5068876;28;20445;-79
2022/08/16 11:23:23;;;;;;;7.45;3.90;;;30.30;54.60;;;;;;5065038;28;20078;-79
2022/08/16 11:25:49;;;;;;;7.47;3.30;;;30.40;57.90;;;;;;5067230;28;20044;-79
2022/08/16 11:28:15;;;;;;;6.15;3.72;;;30.40;59.00;;;;;;5069656;28;20032;-81
2022/08/16 11:30:41;;;;;;;4.80;2.95;;;30.10;60.00;;;;;;5066398;28;20036;-80
2022/08/16 11:33:07;;;;;;;6.32;3.53;;;30.10;60.20;;;;;;5074354;28;20044;-80
2022/08/16 11:35:34;;;;;;;7.18;3.58;;;30.00;60.40;;;;;;5071231;28;20038;-80
2022/08/16 11:38:07;;;;;;;6.03;3.03;;;30.10;60.20;;;;;;5075450;28;20040;-80
2022/08/16 11:40:49;;;;;;;8.07;3.90;;;30.20;60.10;;;;;;5067685;28;20044;-81
2022/08/16 11:43:18;;;;;;;4.18;2.97;;;30.30;60.00;;;;;;5075588;28;20060;-80
2022/08/16 11:45:46;;;;;;;9.55;3.28;;;30.50;61.10;;;;;;5067957;28;20121;-79
2022/08/16 11:48:12;;;;;;;3.75;3.13;;;30.70;61.30;;;;;;5067064;28;20075;-80
2022/08/16 11:50:39;;;;;;;5.82;2.92;;;30.90;60.70;;;;;;5070321;28;20493;-81
2022/08/16 11:53:05;;;;;;;3.63;2.80;;;31.30;59.30;;;;;;5070113;28;20043;-80
2022/08/16 11:55:32;;;;;;;5.95;3.45;;;31.60;57.30;;;;;;5070651;28;20036;-80
2022/08/16 11:57:59;;;;;;;4.40;2.95;;;31.80;54.60;;;;;;5071998;28;20036;-80
2022/08/16 12:00:25;;;;;;;4.30;2.63;;;32.00;54.00;;;;;;5071421;28;20037;-79
2022/08/16 12:02:50;;;;;;;5.40;3.05;;;32.40;54.30;;;;;;5068436;28;20061;-80
2022/08/16 12:05:16;;;;;;;5.20;3.08;;;32.60;52.80;;;;;;5067802;28;20123;-80
2022/08/16 12:07:42;;;;;;;8.40;2.95;;;32.80;49.20;;;;;;5073529;28;20496;-80
2022/08/16 12:10:12;;;;;;;7.00;2.83;;;32.80;47.50;;;;;;5075620;28;20036;-81
2022/08/16 12:12:38;;;;;;;5.15;2.22;;;32.90;46.90;;;;;;5070347;28;20787;-79
2022/08/16 12:15:05;;;;;;;6.07;2.92;;;33.00;46.20;;;;;;5068016;28;20047;-80
2022/08/16 12:17:30;;;;;;;2.80;2.40;;;33.10;45.50;;;;;;5067617;28;20070;-80
2022/08/16 12:19:56;;;;;;;6.68;2.78;;;33.30;46.40;;;;;;5073669;28;20056;-80
2022/08/16 12:22:23;;;;;;;4.25;2.50;;;33.30;43.90;;;;;;5073683;28;20042;-81
2022/08/16 12:24:49;;;;;;;3.40;2.13;;;33.30;43.90;;;;;;5075291;28;20576;-80
2022/08/16 12:27:15;;;;;;;5.38;2.58;;;33.50;44.10;;;;;;5073802;28;20040;-80
2022/08/16 12:29:41;;;;;;;4.40;2.50;;;33.50;43.90;;;;;;5072871;28;20101;-81
2022/08/16 12:32:06;;;;;;;4.35;2.58;;;33.40;43.10;;;;;;5069232;28;20029;-80
2022/08/16 12:34:32;;;;;;;3.00;2.20;;;33.10;44.10;;;;;;5070722;28;20127;-80
2022/08/16 12:37:01;;;;;;;3.10;2.60;;;32.80;43.60;;;;;;5070904;28;20511;-79
2022/08/16 12:39:28;;;;;;;8.32;2.42;;;32.60;44.40;;;;;;5078364;28;20028;-80
2022/08/16 12:41:53;;;;;;;2.83;2.38;;;32.50;44.90;;;;;;5070233;28;20037;-80
2022/08/16 12:44:19;;;;;;;2.95;2.47;;;32.30;45.00;;;;;;5077132;28;20046;-80
2022/08/16 12:48:56;;;;;;;4.90;2.30;;;32.30;44.90;;;;;;5071869;28;20091;-80